sensor_id;sensor_type;location;lat;lon;timestamp;pressure;altitude;pressure_sealevel;temperature;humidity
21111;BME280;10713;51.912;4.494;2023-01-29T00:01:35;103004.09;;;6.26;100.00
21111;BME280;10713;51.912;4.494;2023-01-29T00:04:00;102988.34;;;6.25;100.00
21111;BME280;10713;51.912;4.494;2023-01-29T00:06:26;102993.63;;;6.28;100.00
21111;BME280;10713;51.912;4.494;2023-01-29T00:08:51;102982.25;;;6.24;100.00
21111;BME280;10713;51.912;4.494;2023-01-29T00:11:17;102972.56;;;6.20;100.00
21111;BME280;10713;51.912;4.494;2023-01-29T00:13:44;102970.72;;;6.13;100.00
21111;BME280;10713;51.912;4.494;2023-01-29T00:16:09;102975.97;;;6.13;100.00
21111;BME280;10713;51.912;4.494;2023-01-29T00:18:38;102973.41;;;6.19;100.00
21111;BME280;10713;51.912;4.494;2023-01-29T00:21:22;102977.84;;;6.22;100.00
21111;BME280;10713;51.912;4.494;2023-01-29T00:23:49;102966.47;;;6.21;100.00
21111;BME280;10713;51.912;4.494;2023-01-29T00:26:15;102965.56;;;6.19;100.00
21111;BME280;10713;51.912;4.494;2023-01-29T00:28:40;102966.44;;;6.20;100.00
21111;BME280;10713;51.912;4.494;2023-01-29T00:31:10;102966.50;;;6.24;100.00
21111;BME280;10713;51.912;4.494;2023-01-29T00:33:36;102964.72;;;6.22;100.00
21111;BME280;10713;51.912;4.494;2023-01-29T00:36:03;102974.28;;;6.20;100.00
21111;BME280;10713;51.912;4.494;2023-01-29T00:38:29;102969.84;;;6.13;100.00
21111;BME280;10713;51.912;4.494;2023-01-29T00:40:54;102966.31;;;6.12;100.00
21111;BME280;10713;51.912;4.494;2023-01-29T00:43:38;102963.81;;;6.20;100.00
21111;BME280;10713;51.912;4.494;2023-01-29T00:46:22;102953.34;;;6.23;100.00
21111;BME280;10713;51.912;4.494;2023-01-29T00:48:47;102950.72;;;6.21;100.00
21111;BME280;10713;51.912;4.494;2023-01-29T00:51:13;102950.75;;;6.24;100.00
21111;BME280;10713;51.912;4.494;2023-01-29T00:53:38;102950.81;;;6.29;100.00
21111;BME280;10713;51.912;4.494;2023-01-29T00:56:03;102946.47;;;6.31;100.00
21111;BME280;10713;51.912;4.494;2023-01-29T00:58:29;102950.84;;;6.32;100.00
21111;BME280;10713;51.912;4.494;2023-01-29T01:00:59;102940.38;;;6.34;100.00
21111;BME280;10713;51.912;4.494;2023-01-29T01:03:25;102933.34;;;6.31;100.00
21111;BME280;10713;51.912;4.494;2023-01-29T01:06:02;102936.84;;;6.31;100.00
21111;BME280;10713;51.912;4.494;2023-01-29T01:08:27;102934.16;;;6.25;100.00
21111;BME280;10713;51.912;4.494;2023-01-29T01:11:11;102932.41;;;6.24;100.00
21111;BME280;10713;51.912;4.494;2023-01-29T01:13:36;102931.47;;;6.19;100.00
21111;BME280;10713;51.912;4.494;2023-01-29T01:16:11;102932.41;;;6.26;100.00
21111;BME280;10713;51.912;4.494;2023-01-29T01:18:37;102928.84;;;6.19;100.00
21111;BME280;10713;51.912;4.494;2023-01-29T01:21:02;102929.69;;;6.17;100.00
21111;BME280;10713;51.912;4.494;2023-01-29T01:23:28;102933.97;;;6.12;100.00
21111;BME280;10713;51.912;4.494;2023-01-29T01:25:53;102933.09;;;6.11;100.00
21111;BME280;10713;51.912;4.494;2023-01-29T01:28:19;102933.09;;;6.09;100.00
21111;BME280;10713;51.912;4.494;2023-01-29T01:30:44;102929.66;;;6.15;100.00
21111;BME280;10713;51.912;4.494;2023-01-29T01:33:10;102937.53;;;6.17;100.00
21111;BME280;10713;51.912;4.494;2023-01-29T01:35:37;102941.91;;;6.18;100.00
21111;BME280;10713;51.912;4.494;2023-01-29T01:38:03;102954.16;;;6.16;100.00
21111;BME280;10713;51.912;4.494;2023-01-29T01:40:28;102951.53;;;6.17;100.00
21111;BME280;10713;51.912;4.494;2023-01-29T01:42:56;102954.19;;;6.19;100.00
21111;BME280;10713;51.912;4.494;2023-01-29T01:45:35;102953.28;;;6.17;100.00
21111;BME280;10713;51.912;4.494;2023-01-29T01:50:57;102947.28;;;6.25;100.00
21111;BME280;10713;51.912;4.494;2023-01-29T01:53:39;102947.19;;;6.21;100.00
21111;BME280;10713;51.912;4.494;2023-01-29T01:56:10;102950.69;;;6.20;100.00
21111;BME280;10713;51.912;4.494;2023-01-29T01:58:40;102948.00;;;6.15;100.00
21111;BME280;10713;51.912;4.494;2023-01-29T02:01:08;102955.00;;;6.15;100.00
21111;BME280;10713;51.912;4.494;2023-01-29T02:03:37;102947.16;;;6.16;100.00
21111;BME280;10713;51.912;4.494;2023-01-29T02:06:23;102946.25;;;6.14;100.00
21111;BME280;10713;51.912;4.494;2023-01-29T02:09:11;102953.22;;;6.12;100.00
21111;BME280;10713;51.912;4.494;2023-01-29T02:11:57;102952.38;;;6.15;100.00
21111;BME280;10713;51.912;4.494;2023-01-29T02:14:22;102943.63;;;6.13;100.00
21111;BME280;10713;51.912;4.494;2023-01-29T02:16:49;102936.63;;;6.13;100.00
21111;BME280;10713;51.912;4.494;2023-01-29T02:19:37;102929.66;;;6.15;100.00
21111;BME280;10713;51.912;4.494;2023-01-29T02:25:01;102927.78;;;6.06;100.00
21111;BME280;10713;51.912;4.494;2023-01-29T02:30:22;102930.41;;;6.05;100.00
21111;BME280;10713;51.912;4.494;2023-01-29T02:33:03;102934.75;;;6.03;100.00
21111;BME280;10713;51.912;4.494;2023-01-29T02:35:45;102943.44;;;5.99;100.00
21111;BME280;10713;51.912;4.494;2023-01-29T02:41:01;102931.31;;;6.07;100.00
21111;BME280;10713;51.912;4.494;2023-01-29T02:43:47;102925.19;;;6.08;100.00
21111;BME280;10713;51.912;4.494;2023-01-29T02:49:11;102936.53;;;6.05;100.00
21111;BME280;10713;51.912;4.494;2023-01-29T02:57:18;102933.94;;;6.08;100.00
21111;BME280;10713;51.912;4.494;2023-01-29T02:59:58;102922.53;;;6.06;100.00
21111;BME280;10713;51.912;4.494;2023-01-29T03:02:32;102934.81;;;6.09;100.00
21111;BME280;10713;51.912;4.494;2023-01-29T03:05:03;102937.47;;;6.12;100.00
21111;BME280;10713;51.912;4.494;2023-01-29T03:07:36;102926.06;;;6.07;100.00
21111;BME280;10713;51.912;4.494;2023-01-29T03:10:15;102926.88;;;6.03;100.00
21111;BME280;10713;51.912;4.494;2023-01-29T03:12:41;102927.78;;;6.05;100.00
21111;BME280;10713;51.912;4.494;2023-01-29T03:15:10;102924.25;;;6.01;100.00
21111;BME280;10713;51.912;4.494;2023-01-29T03:17:59;102927.63;;;5.94;100.00
21111;BME280;10713;51.912;4.494;2023-01-29T03:20:30;102923.28;;;5.95;100.00
21111;BME280;10713;51.912;4.494;2023-01-29T03:23:02;102923.34;;;5.99;100.00
21111;BME280;10713;51.912;4.494;2023-01-29T03:25:30;102922.47;;;6.00;100.00
21111;BME280;10713;51.912;4.494;2023-01-29T03:28:17;102925.13;;;6.03;100.00
21111;BME280;10713;51.912;4.494;2023-01-29T03:31:04;102923.41;;;6.05;100.00
21111;BME280;10713;51.912;4.494;2023-01-29T03:34:32;102914.63;;;6.02;100.00
21111;BME280;10713;51.912;4.494;2023-01-29T03:37:03;102923.34;;;6.01;100.00
21111;BME280;10713;51.912;4.494;2023-01-29T03:39:32;102910.28;;;6.02;100.00
21111;BME280;10713;51.912;4.494;2023-01-29T03:43:19;102907.69;;;6.04;100.00
21111;BME280;10713;51.912;4.494;2023-01-29T03:45:22;102909.34;;;5.99;100.00
21111;BME280;10713;51.912;4.494;2023-01-29T03:48:23;102904.19;;;6.06;100.00
21111;BME280;10713;51.912;4.494;2023-01-29T03:50:58;102906.78;;;6.03;100.00
21111;BME280;10713;51.912;4.494;2023-01-29T03:53:52;102911.19;;;6.04;100.00
21111;BME280;10713;51.912;4.494;2023-01-29T03:58:58;102902.38;;;5.99;100.00
21111;BME280;10713;51.912;4.494;2023-01-29T04:04:00;102890.16;;;6.01;100.00
21111;BME280;10713;51.912;4.494;2023-01-29T04:06:32;102884.03;;;6.01;100.00
21111;BME280;10713;51.912;4.494;2023-01-29T04:11:58;102877.94;;;6.02;100.00
21111;BME280;10713;51.912;4.494;2023-01-29T04:14:26;102874.47;;;6.04;100.00
21111;BME280;10713;51.912;4.494;2023-01-29T04:16:54;102872.72;;;6.06;100.00
21111;BME280;10713;51.912;4.494;2023-01-29T04:19:22;102868.38;;;6.07;100.00
21111;BME280;10713;51.912;4.494;2023-01-29T04:21:49;102875.41;;;6.11;100.00
21111;BME280;10713;51.912;4.494;2023-01-29T04:24:19;102873.66;;;6.12;100.00
21111;BME280;10713;51.912;4.494;2023-01-29T04:26:59;102869.31;;;6.15;100.00
21111;BME280;10713;51.912;4.494;2023-01-29T04:32:24;102867.63;;;6.16;100.00
21111;BME280;10713;51.912;4.494;2023-01-29T04:40:13;102863.13;;;6.04;100.00
21111;BME280;10713;51.912;4.494;2023-01-29T04:43:07;102856.09;;;6.01;100.00
21111;BME280;10713;51.912;4.494;2023-01-29T04:48:31;102847.38;;;6.04;100.00
21111;BME280;10713;51.912;4.494;2023-01-29T04:53:49;102837.66;;;5.95;100.00
21111;BME280;10713;51.912;4.494;2023-01-29T04:59:22;102832.38;;;5.94;100.00
21111;BME280;10713;51.912;4.494;2023-01-29T05:01:49;102828.06;;;5.97;100.00
21111;BME280;10713;51.912;4.494;2023-01-29T05:04:17;102831.66;;;6.04;100.00
21111;BME280;10713;51.912;4.494;2023-01-29T05:06:44;102826.41;;;6.04;100.00
21111;BME280;10713;51.912;4.494;2023-01-29T05:09:13;102826.41;;;6.05;100.00
21111;BME280;10713;51.912;4.494;2023-01-29T05:11:40;102834.31;;;6.07;100.00
21111;BME280;10713;51.912;4.494;2023-01-29T05:14:08;102827.34;;;6.11;100.00
21111;BME280;10713;51.912;4.494;2023-01-29T05:16:56;102824.69;;;6.07;100.00
21111;BME280;10713;51.912;4.494;2023-01-29T05:19:24;102811.59;;;6.07;100.00
21111;BME280;10713;51.912;4.494;2023-01-29T05:21:50;102818.59;;;6.10;100.00
21111;BME280;10713;51.912;4.494;2023-01-29T05:24:19;102813.38;;;6.13;100.00
21111;BME280;10713;51.912;4.494;2023-01-29T05:26:47;102821.19;;;6.08;100.00
21111;BME280;10713;51.912;4.494;2023-01-29T05:29:31;102808.94;;;6.04;100.00
21111;BME280;10713;51.912;4.494;2023-01-29T05:31:56;102815.94;;;6.07;100.00
21111;BME280;10713;51.912;4.494;2023-01-29T05:34:22;102815.91;;;6.05;100.00
21111;BME280;10713;51.912;4.494;2023-01-29T05:36:48;102814.16;;;6.04;100.00
21111;BME280;10713;51.912;4.494;2023-01-29T05:39:13;102818.50;;;6.02;100.00
21111;BME280;10713;51.912;4.494;2023-01-29T05:41:38;102808.00;;;5.99;100.00
21111;BME280;10713;51.912;4.494;2023-01-29T05:44:04;102811.41;;;5.94;100.00
21111;BME280;10713;51.912;4.494;2023-01-29T05:46:30;102812.25;;;5.93;100.00
21111;BME280;10713;51.912;4.494;2023-01-29T05:48:55;102800.94;;;5.94;100.00
21111;BME280;10713;51.912;4.494;2023-01-29T05:51:20;102803.47;;;5.87;100.00
21111;BME280;10713;51.912;4.494;2023-01-29T05:53:46;102806.91;;;5.85;100.00
21111;BME280;10713;51.912;4.494;2023-01-29T05:56:11;102806.03;;;5.86;100.00
21111;BME280;10713;51.912;4.494;2023-01-29T05:58:36;102805.25;;;5.90;100.00
21111;BME280;10713;51.912;4.494;2023-01-29T06:03:33;102808.69;;;5.89;100.00
21111;BME280;10713;51.912;4.494;2023-01-29T06:06:00;102802.63;;;5.92;100.00
21111;BME280;10713;51.912;4.494;2023-01-29T06:08:26;102807.97;;;5.98;100.00
21111;BME280;10713;51.912;4.494;2023-01-29T06:10:51;102795.75;;;6.00;100.00
21111;BME280;10713;51.912;4.494;2023-01-29T06:13:16;102800.13;;;6.01;100.00
21111;BME280;10713;51.912;4.494;2023-01-29T06:15:42;102804.50;;;6.00;100.00
21111;BME280;10713;51.912;4.494;2023-01-29T06:18:07;102814.13;;;6.03;100.00
21111;BME280;10713;51.912;4.494;2023-01-29T06:20:32;102810.63;;;6.02;100.00
21111;BME280;10713;51.912;4.494;2023-01-29T06:22:58;102802.75;;;6.01;100.00
21111;BME280;10713;51.912;4.494;2023-01-29T06:25:23;102796.66;;;6.02;100.00
21111;BME280;10713;51.912;4.494;2023-01-29T06:27:51;102790.50;;;6.00;100.00
21111;BME280;10713;51.912;4.494;2023-01-29T06:30:17;102786.16;;;6.00;100.00
21111;BME280;10713;51.912;4.494;2023-01-29T06:32:42;102788.72;;;5.97;100.00
21111;BME280;10713;51.912;4.494;2023-01-29T06:35:08;102791.34;;;5.96;100.00
21111;BME280;10713;51.912;4.494;2023-01-29T06:37:34;102782.66;;;6.00;100.00
21111;BME280;10713;51.912;4.494;2023-01-29T06:40:00;102780.03;;;5.98;100.00
21111;BME280;10713;51.912;4.494;2023-01-29T06:42:25;102776.41;;;5.92;100.00
21111;BME280;10713;51.912;4.494;2023-01-29T06:44:55;102786.03;;;5.93;100.00
21111;BME280;10713;51.912;4.494;2023-01-29T06:47:21;102780.00;;;5.95;100.00
21111;BME280;10713;51.912;4.494;2023-01-29T06:49:47;102770.31;;;5.93;100.00
21111;BME280;10713;51.912;4.494;2023-01-29T06:52:12;102768.53;;;5.90;100.00
21111;BME280;10713;51.912;4.494;2023-01-29T06:54:37;102782.53;;;5.92;100.00
21111;BME280;10713;51.912;4.494;2023-01-29T06:57:03;102774.63;;;5.89;100.00
21111;BME280;10713;51.912;4.494;2023-01-29T06:59:28;102771.13;;;5.88;100.00
21111;BME280;10713;51.912;4.494;2023-01-29T07:01:54;102772.94;;;5.93;100.00
21111;BME280;10713;51.912;4.494;2023-01-29T07:04:19;102770.31;;;5.93;100.00
21111;BME280;10713;51.912;4.494;2023-01-29T07:06:44;102777.38;;;5.97;100.00
21111;BME280;10713;51.912;4.494;2023-01-29T07:09:12;102767.81;;;6.03;100.00
21111;BME280;10713;51.912;4.494;2023-01-29T07:11:38;102777.47;;;6.06;100.00
21111;BME280;10713;51.912;4.494;2023-01-29T07:14:04;102767.91;;;6.09;100.00
21111;BME280;10713;51.912;4.494;2023-01-29T07:16:30;102764.31;;;6.03;100.00
21111;BME280;10713;51.912;4.494;2023-01-29T07:18:55;102773.03;;;6.00;100.00
21111;BME280;10713;51.912;4.494;2023-01-29T07:21:21;102772.16;;;6.00;100.00
21111;BME280;10713;51.912;4.494;2023-01-29T07:23:46;102778.28;;;5.99;100.00
21111;BME280;10713;51.912;4.494;2023-01-29T07:26:11;102787.88;;;5.98;100.00
21111;BME280;10713;51.912;4.494;2023-01-29T07:28:38;102784.38;;;5.98;100.00
21111;BME280;10713;51.912;4.494;2023-01-29T07:31:03;102771.22;;;5.95;100.00
21111;BME280;10713;51.912;4.494;2023-01-29T07:33:29;102781.72;;;5.93;100.00
21111;BME280;10713;51.912;4.494;2023-01-29T07:35:54;102767.72;;;5.94;100.00
21111;BME280;10713;51.912;4.494;2023-01-29T07:38:20;102774.72;;;5.94;100.00
21111;BME280;10713;51.912;4.494;2023-01-29T07:40:45;102772.03;;;5.92;100.00
21111;BME280;10713;51.912;4.494;2023-01-29T07:43:11;102776.41;;;5.90;100.00
21111;BME280;10713;51.912;4.494;2023-01-29T07:45:38;102781.72;;;5.93;100.00
21111;BME280;10713;51.912;4.494;2023-01-29T07:48:04;102767.72;;;5.94;100.00
21111;BME280;10713;51.912;4.494;2023-01-29T07:50:31;102760.81;;;5.99;100.00
21111;BME280;10713;51.912;4.494;2023-01-29T07:52:57;102765.16;;;5.99;100.00
21111;BME280;10713;51.912;4.494;2023-01-29T07:55:22;102766.03;;;5.99;100.00
21111;BME280;10713;51.912;4.494;2023-01-29T07:57:55;102773.97;;;6.05;100.00
21111;BME280;10713;51.912;4.494;2023-01-29T08:00:21;102773.94;;;6.02;100.00
21111;BME280;10713;51.912;4.494;2023-01-29T08:02:46;102768.66;;;6.01;100.00
21111;BME280;10713;51.912;4.494;2023-01-29T08:05:11;102769.56;;;6.03;100.00
21111;BME280;10713;51.912;4.494;2023-01-29T08:07:37;102760.84;;;6.05;100.00
21111;BME280;10713;51.912;4.494;2023-01-29T08:10:02;102757.41;;;6.09;100.00
21111;BME280;10713;51.912;4.494;2023-01-29T08:12:28;102758.34;;;6.16;100.00
21111;BME280;10713;51.912;4.494;2023-01-29T08:14:53;102756.63;;;6.18;100.00
21111;BME280;10713;51.912;4.494;2023-01-29T08:17:19;102757.53;;;6.22;100.00
21111;BME280;10713;51.912;4.494;2023-01-29T08:19:44;102756.69;;;6.26;100.00
21111;BME280;10713;51.912;4.494;2023-01-29T08:22:09;102751.44;;;6.26;100.00
21111;BME280;10713;51.912;4.494;2023-01-29T08:24:35;102750.63;;;6.30;100.00
21111;BME280;10713;51.912;4.494;2023-01-29T08:27:00;102759.38;;;6.35;100.00
21111;BME280;10713;51.912;4.494;2023-01-29T08:29:25;102746.22;;;6.27;100.00
21111;BME280;10713;51.912;4.494;2023-01-29T08:31:51;102740.88;;;6.17;100.00
21111;BME280;10713;51.912;4.494;2023-01-29T08:34:16;102736.47;;;6.14;100.00
21111;BME280;10713;51.912;4.494;2023-01-29T08:36:41;102737.38;;;6.18;100.00
21111;BME280;10713;51.912;4.494;2023-01-29T08:39:07;102731.25;;;6.17;100.00
21111;BME280;10713;51.912;4.494;2023-01-29T08:41:32;102735.59;;;6.15;100.00
21111;BME280;10713;51.912;4.494;2023-01-29T08:43:58;102733.84;;;6.13;100.00
21111;BME280;10713;51.912;4.494;2023-01-29T08:46:25;102729.47;;;6.15;100.00
21111;BME280;10713;51.912;4.494;2023-01-29T08:48:51;102735.69;;;6.24;100.00
21111;BME280;10713;51.912;4.494;2023-01-29T08:51:16;102721.75;;;6.30;100.00
21111;BME280;10713;51.912;4.494;2023-01-29T08:53:42;102727.00;;;6.31;100.00
21111;BME280;10713;51.912;4.494;2023-01-29T08:56:07;102718.22;;;6.25;100.00
21111;BME280;10713;51.912;4.494;2023-01-29T08:58:32;102723.47;;;6.29;100.00
21111;BME280;10713;51.912;4.494;2023-01-29T09:01:06;102719.13;;;6.31;100.00
21111;BME280;10713;51.912;4.494;2023-01-29T09:03:31;102718.25;;;6.29;100.00
21111;BME280;10713;51.912;4.494;2023-01-29T09:05:56;102724.47;;;6.44;100.00
21111;BME280;10713;51.912;4.494;2023-01-29T09:08:22;102723.63;;;6.45;100.00
21111;BME280;10713;51.912;4.494;2023-01-29T09:10:47;102719.22;;;6.44;100.00
21111;BME280;10713;51.912;4.494;2023-01-29T09:13:12;102722.78;;;6.47;100.00
21111;BME280;10713;51.912;4.494;2023-01-29T09:15:38;102721.94;;;6.53;100.00
21111;BME280;10713;51.912;4.494;2023-01-29T09:18:04;102712.13;;;6.27;100.00
21111;BME280;10713;51.912;4.494;2023-01-29T09:20:29;102717.31;;;6.23;100.00
21111;BME280;10713;51.912;4.494;2023-01-29T09:22:54;102715.59;;;6.25;100.00
21111;BME280;10713;51.912;4.494;2023-01-29T09:25:21;102714.78;;;6.30;100.00
21111;BME280;10713;51.912;4.494;2023-01-29T09:27:46;102720.00;;;6.30;100.00
21111;BME280;10713;51.912;4.494;2023-01-29T09:30:12;102730.50;;;6.30;100.00
21111;BME280;10713;51.912;4.494;2023-01-29T09:32:37;102719.13;;;6.28;100.00
21111;BME280;10713;51.912;4.494;2023-01-29T09:35:03;102716.50;;;6.28;100.00
21111;BME280;10713;51.912;4.494;2023-01-29T09:37:28;102716.53;;;6.33;100.00
21111;BME280;10713;51.912;4.494;2023-01-29T09:39:54;102713.94;;;6.38;100.00
21111;BME280;10713;51.912;4.494;2023-01-29T09:42:44;102709.63;;;6.46;100.00
21111;BME280;10713;51.912;4.494;2023-01-29T09:45:15;102721.81;;;6.41;100.00
21111;BME280;10713;51.912;4.494;2023-01-29T09:47:41;102717.41;;;6.34;100.00
21111;BME280;10713;51.912;4.494;2023-01-29T09:50:16;102711.22;;;6.25;100.00
21111;BME280;10713;51.912;4.494;2023-01-29T09:52:52;102720.91;;;6.32;100.00
21111;BME280;10713;51.912;4.494;2023-01-29T09:55:25;102715.66;;;6.34;100.00
21111;BME280;10713;51.912;4.494;2023-01-29T09:57:54;102709.53;;;6.34;100.00
21111;BME280;10713;51.912;4.494;2023-01-29T10:03:12;102713.91;;;6.30;100.00
21111;BME280;10713;51.912;4.494;2023-01-29T10:14:45;102683.31;;;6.34;100.00
21111;BME280;10713;51.912;4.494;2023-01-29T10:25:34;102680.84;;;6.57;100.00
21111;BME280;10713;51.912;4.494;2023-01-29T10:28:00;102680.03;;;6.65;100.00
21111;BME280;10713;51.912;4.494;2023-01-29T10:31:28;102678.31;;;6.67;100.00
21111;BME280;10713;51.912;4.494;2023-01-29T10:33:49;102667.78;;;6.66;100.00
21111;BME280;10713;51.912;4.494;2023-01-29T10:36:19;102661.69;;;6.68;100.00
21111;BME280;10713;51.912;4.494;2023-01-29T10:38:48;102666.97;;;6.70;100.00
21111;BME280;10713;51.912;4.494;2023-01-29T10:44:04;102660.88;;;6.79;100.00
21111;BME280;10713;51.912;4.494;2023-01-29T11:00:22;102648.63;;;6.79;100.00
21111;BME280;10713;51.912;4.494;2023-01-29T11:02:50;102638.97;;;6.70;100.00
21111;BME280;10713;51.912;4.494;2023-01-29T11:05:33;102631.09;;;6.70;100.00
21111;BME280;10713;51.912;4.494;2023-01-29T11:08:10;102624.06;;;6.68;100.00
21111;BME280;10713;51.912;4.494;2023-01-29T11:10:43;102619.72;;;6.70;100.00
21111;BME280;10713;51.912;4.494;2023-01-29T11:13:13;102616.19;;;6.69;100.00
21111;BME280;10713;51.912;4.494;2023-01-29T11:15:39;102623.19;;;6.66;100.00
21111;BME280;10713;51.912;4.494;2023-01-29T11:18:09;102616.19;;;6.65;100.00
21111;BME280;10713;51.912;4.494;2023-01-29T11:20:37;102618.84;;;6.72;100.00
21111;BME280;10713;51.912;4.494;2023-01-29T11:23:03;102618.84;;;6.74;100.00
21111;BME280;10713;51.912;4.494;2023-01-29T11:25:29;102620.63;;;6.80;100.00
21111;BME280;10713;51.912;4.494;2023-01-29T11:28:01;102617.16;;;6.82;100.00
21111;BME280;10713;51.912;4.494;2023-01-29T11:30:31;102618.91;;;6.82;100.00
21111;BME280;10713;51.912;4.494;2023-01-29T11:35:29;102609.22;;;6.73;100.00
21111;BME280;10713;51.912;4.494;2023-01-29T11:38:07;102613.56;;;6.69;100.00
21111;BME280;10713;51.912;4.494;2023-01-29T11:40:38;102604.84;;;6.70;100.00
21111;BME280;10713;51.912;4.494;2023-01-29T11:45:55;102600.47;;;6.72;100.00
21111;BME280;10713;51.912;4.494;2023-01-29T11:48:42;102584.75;;;6.79;100.00
21111;BME280;10713;51.912;4.494;2023-01-29T11:51:20;102586.50;;;6.76;100.00
21111;BME280;10713;51.912;4.494;2023-01-29T11:53:50;102581.22;;;6.78;100.00
21111;BME280;10713;51.912;4.494;2023-01-29T11:56:28;102582.13;;;6.72;100.00
21111;BME280;10713;51.912;4.494;2023-01-29T11:58:57;102574.25;;;6.79;100.00
21111;BME280;10713;51.912;4.494;2023-01-29T12:01:49;102574.28;;;6.82;100.00
21111;BME280;10713;51.912;4.494;2023-01-29T12:04:20;102563.78;;;6.82;100.00
21111;BME280;10713;51.912;4.494;2023-01-29T12:06:48;102565.53;;;6.84;100.00
21111;BME280;10713;51.912;4.494;2023-01-29T12:09:18;102562.91;;;6.86;100.00
21111;BME280;10713;51.912;4.494;2023-01-29T12:11:45;102558.53;;;6.86;100.00
21111;BME280;10713;51.912;4.494;2023-01-29T12:14:27;102549.78;;;6.89;100.00
21111;BME280;10713;51.912;4.494;2023-01-29T12:17:13;102547.19;;;6.90;100.00
21111;BME280;10713;51.912;4.494;2023-01-29T12:22:21;102532.28;;;6.89;100.00
21111;BME280;10713;51.912;4.494;2023-01-29T12:24:53;102517.41;;;6.88;100.00
21111;BME280;10713;51.912;4.494;2023-01-29T12:33:11;102506.06;;;7.05;100.00
21111;BME280;10713;51.912;4.494;2023-01-29T12:35:37;102493.78;;;7.00;100.00
21111;BME280;10713;51.912;4.494;2023-01-29T12:38:12;102482.44;;;7.00;100.00
21111;BME280;10713;51.912;4.494;2023-01-29T12:40:52;102469.31;;;7.32;100.00
21111;BME280;10713;51.912;4.494;2023-01-29T12:43:29;102470.22;;;7.56;100.00
21111;BME280;10713;51.912;4.494;2023-01-29T12:45:56;102465.81;;;7.56;100.00
21111;BME280;10713;51.912;4.494;2023-01-29T12:48:26;102460.56;;;7.52;100.00
21111;BME280;10713;51.912;4.494;2023-01-29T12:50:54;102477.22;;;7.43;100.00
21111;BME280;10713;51.912;4.494;2023-01-29T12:53:30;102467.56;;;7.50;100.00
21111;BME280;10713;51.912;4.494;2023-01-29T12:56:02;102462.31;;;7.43;100.00
21111;BME280;10713;51.912;4.494;2023-01-29T12:58:34;102451.81;;;7.51;100.00
21111;BME280;10713;51.912;4.494;2023-01-29T13:01:05;102444.81;;;7.50;100.00
21111;BME280;10713;51.912;4.494;2023-01-29T13:03:46;102428.16;;;7.45;100.00
21111;BME280;10713;51.912;4.494;2023-01-29T13:06:21;102425.53;;;7.48;100.00
21111;BME280;10713;51.912;4.494;2023-01-29T13:08:51;102415.91;;;7.49;100.00
21111;BME280;10713;51.912;4.494;2023-01-29T13:11:34;102405.41;;;7.44;100.00
21111;BME280;10713;51.912;4.494;2023-01-29T13:14:12;102394.03;;;7.42;100.00
21111;BME280;10713;51.912;4.494;2023-01-29T13:16:43;102393.16;;;7.41;100.00
21111;BME280;10713;51.912;4.494;2023-01-29T13:19:34;102394.88;;;7.45;100.00
21111;BME280;10713;51.912;4.494;2023-01-29T13:22:18;102382.63;;;7.44;100.00
21111;BME280;10713;51.912;4.494;2023-01-29T13:24:45;102377.38;;;7.51;100.00
21111;BME280;10713;51.912;4.494;2023-01-29T13:27:27;102366.84;;;7.43;100.00
21111;BME280;10713;51.912;4.494;2023-01-29T13:29:54;102371.22;;;7.53;100.00
21111;BME280;10713;51.912;4.494;2023-01-29T13:32:24;102359.81;;;7.62;100.00
21111;BME280;10713;51.912;4.494;2023-01-29T13:34:52;102355.41;;;7.68;100.00
21111;BME280;10713;51.912;4.494;2023-01-29T13:38:01;102351.91;;;7.71;100.00
21111;BME280;10713;51.912;4.494;2023-01-29T13:40:28;102348.41;;;7.67;100.00
21111;BME280;10713;51.912;4.494;2023-01-29T13:42:55;102344.00;;;7.66;100.00
21111;BME280;10713;51.912;4.494;2023-01-29T13:45:33;102342.22;;;7.79;100.00
21111;BME280;10713;51.912;4.494;2023-01-29T13:50:44;102343.13;;;7.81;100.00
21111;BME280;10713;51.912;4.494;2023-01-29T13:53:20;102340.47;;;7.83;100.00
21111;BME280;10713;51.912;4.494;2023-01-29T13:55:48;102341.31;;;7.88;100.00
21111;BME280;10713;51.912;4.494;2023-01-29T14:01:08;102331.66;;;7.96;100.00
21111;BME280;10713;51.912;4.494;2023-01-29T14:03:43;102328.16;;;7.91;100.00
21111;BME280;10713;51.912;4.494;2023-01-29T14:06:10;102326.38;;;7.98;100.00
21111;BME280;10713;51.912;4.494;2023-01-29T14:08:42;102327.25;;;8.01;100.00
21111;BME280;10713;51.912;4.494;2023-01-29T14:13:41;102315.91;;;7.90;100.00
21111;BME280;10713;51.912;4.494;2023-01-29T14:18:56;102318.56;;;7.87;100.00
21111;BME280;10713;51.912;4.494;2023-01-29T14:21:25;102316.81;;;7.83;100.00
21111;BME280;10713;51.912;4.494;2023-01-29T14:23:57;102307.19;;;7.79;100.00
21111;BME280;10713;51.912;4.494;2023-01-29T14:26:32;102309.81;;;7.74;100.00
21111;BME280;10713;51.912;4.494;2023-01-29T14:31:58;102306.38;;;7.64;100.00
21111;BME280;10713;51.912;4.494;2023-01-29T14:34:33;102306.38;;;7.61;100.00
21111;BME280;10713;51.912;4.494;2023-01-29T14:37:19;102302.03;;;7.51;100.00
21111;BME280;10713;51.912;4.494;2023-01-29T14:39:50;102305.53;;;7.49;100.00
21111;BME280;10713;51.912;4.494;2023-01-29T14:50:00;102289.84;;;7.24;100.00
21111;BME280;10713;51.912;4.494;2023-01-29T14:52:37;102293.34;;;7.28;100.00
21111;BME280;10713;51.912;4.494;2023-01-29T14:56:08;102300.34;;;7.26;100.00
21111;BME280;10713;51.912;4.494;2023-01-29T14:58:04;102284.59;;;7.15;100.00
21111;BME280;10713;51.912;4.494;2023-01-29T15:00:36;102286.34;;;7.22;100.00
21111;BME280;10713;51.912;4.494;2023-01-29T15:03:17;102277.63;;;7.15;100.00
21111;BME280;10713;51.912;4.494;2023-01-29T15:05:44;102291.63;;;7.11;100.00
21111;BME280;10713;51.912;4.494;2023-01-29T15:08:21;102279.38;;;7.03;100.00